Royal — WDD3653 — position and weather

sailwx.info

Track history (hours):
 
Tides and Currents Weather Stations Pressure Air Temp Water Temp Dewpoint Dewpoint Depression Visibility Wind Speed Wind Dir Waves Ship Positions

Royal

Owner: GulfMark Americas, Inc., Saint Rose, LA. More information available from US FCC via Universal Licensing System and Coast Guard Vessel Documentation Center.

Last reported at 2016-Aug-10 23:33 UTC. Time now 2016-Aug-31 00:28 UTC.
Position N 29°25' W 094°49'.
Warning: this ship's position is 20 days out of date.

Length 64 m; draft 4.1 m.

Type: Cargo ship. MMSI: 366964490.

Date/timePositionNaut miles runAvg speedWind from/ knotsBaromVisibWave heightAir tempDewpointWater temp
2016-Aug-10 23:33N 29°25' W 094°49'1010.4
2016-Aug-10 22:33N 29°34' W 094°55'9 8.6
2016-Aug-10 21:33N 29°42' W 094°59'5 5.1
2016-Aug-10 20:33N 29°45' W 095°04'5 5.1
2016-Aug-10 19:33N 29°45' W 095°10'0 0.0
2016-Aug-10 02:30N 29°45' W 095°10'5 5.3
2016-Aug-10 01:32N 29°45' W 095°04'9 8.4
2016-Aug-10 00:28N 29°38' W 094°58'89 8.9
2016-Aug-09 14:28N 29°02' W 093°24'10 9.2
2016-Aug-09 13:21N 28°60' W 093°12'  
Track history (hours):
 
Tides and Currents Weather Stations Pressure Air Temp Water Temp Dewpoint Dewpoint Depression Visibility Wind Speed Wind Dir Waves Ship Positions

Royal

Owner: GulfMark Americas, Inc., Saint Rose, LA. More information available from US FCC via Universal Licensing System and Coast Guard Vessel Documentation Center.

Last reported at 2016-Aug-10 23:33 UTC. Time now 2016-Aug-31 00:28 UTC.
Position N 29°25' W 094°49'.
Warning: this ship's position is 20 days out of date.

Length 64 m; draft 4.1 m.

Type: Cargo ship. MMSI: 366964490.

Date/timePositionNaut miles runAvg speedWind from/ knotsBaromVisibWave heightAir tempDewpointWater temp
2016-Aug-10 23:33N 29°25' W 094°49'1010.4
2016-Aug-10 22:33N 29°34' W 094°55'9 8.6
2016-Aug-10 21:33N 29°42' W 094°59'5 5.1
2016-Aug-10 20:33N 29°45' W 095°04'5 5.1
2016-Aug-10 19:33N 29°45' W 095°10'0 0.0
2016-Aug-10 02:30N 29°45' W 095°10'5 5.3
2016-Aug-10 01:32N 29°45' W 095°04'9 8.4
2016-Aug-10 00:28N 29°38' W 094°58'89 8.9
2016-Aug-09 14:28N 29°02' W 093°24'10 9.2
2016-Aug-09 13:21N 28°60' W 093°12'  

Dump ship's entire track history